sensor_id;sensor_type;location;lat;lon;timestamp;pressure;altitude;pressure_sealevel;temperature;humidity
76229;BME280;65021;53.174;18.160;2023-06-10T00:02:01;101181.51;;;17.78;65.98
76229;BME280;65021;53.174;18.160;2023-06-10T00:04:28;101189.88;;;17.78;66.41
76229;BME280;65021;53.174;18.160;2023-06-10T00:06:54;101190.12;;;17.77;66.11
76229;BME280;65021;53.174;18.160;2023-06-10T00:09:21;101191.30;;;17.75;66.21
76229;BME280;65021;53.174;18.160;2023-06-10T00:11:49;101191.36;;;17.73;66.26
76229;BME280;65021;53.174;18.160;2023-06-10T00:14:15;101194.56;;;17.70;66.30
76229;BME280;65021;53.174;18.160;2023-06-10T00:16:42;101200.52;;;17.69;65.93
76229;BME280;65021;53.174;18.160;2023-06-10T00:19:11;101199.41;;;17.71;66.18
76229;BME280;65021;53.174;18.160;2023-06-10T00:21:40;101198.27;;;17.73;66.13
76229;BME280;65021;53.174;18.160;2023-06-10T00:24:07;101201.64;;;17.73;65.91
76229;BME280;65021;53.174;18.160;2023-06-10T00:26:39;101196.86;;;17.72;65.89
76229;BME280;65021;53.174;18.160;2023-06-10T00:29:06;101199.51;;;17.72;65.89
76229;BME280;65021;53.174;18.160;2023-06-10T00:31:37;101198.84;;;17.71;66.23
76229;BME280;65021;53.174;18.160;2023-06-10T00:34:04;101197.98;;;17.71;66.31
76229;BME280;65021;53.174;18.160;2023-06-10T00:36:30;101199.67;;;17.70;66.22
76229;BME280;65021;53.174;18.160;2023-06-10T00:38:57;101199.01;;;17.69;65.97
76229;BME280;65021;53.174;18.160;2023-06-10T00:41:24;101202.89;;;17.67;66.16
76229;BME280;65021;53.174;18.160;2023-06-10T00:43:52;101202.55;;;17.64;66.22
76229;BME280;65021;53.174;18.160;2023-06-10T00:46:21;101206.11;;;17.63;66.13
76229;BME280;65021;53.174;18.160;2023-06-10T00:48:48;101203.52;;;17.62;66.27
76229;BME280;65021;53.174;18.160;2023-06-10T00:51:16;101209.80;;;17.61;66.24
76229;BME280;65021;53.174;18.160;2023-06-10T00:53:44;101209.98;;;17.59;66.10
76229;BME280;65021;53.174;18.160;2023-06-10T00:56:11;101217.29;;;17.58;66.29
76229;BME280;65021;53.174;18.160;2023-06-10T00:58:37;101219.54;;;17.58;66.48
76229;BME280;65021;53.174;18.160;2023-06-10T01:01:04;101220.71;;;17.57;66.76
76229;BME280;65021;53.174;18.160;2023-06-10T01:03:31;101220.17;;;17.58;66.82
76229;BME280;65021;53.174;18.160;2023-06-10T01:06:12;101223.64;;;17.59;66.58
76229;BME280;65021;53.174;18.160;2023-06-10T01:11:29;101231.52;;;17.63;66.42
76229;BME280;65021;53.174;18.160;2023-06-10T01:14:00;101233.38;;;17.64;66.54
76229;BME280;65021;53.174;18.160;2023-06-10T01:16:27;101232.59;;;17.64;66.87
76229;BME280;65021;53.174;18.160;2023-06-10T01:18:54;101229.10;;;17.64;66.38
76229;BME280;65021;53.174;18.160;2023-06-10T01:21:24;101230.39;;;17.63;66.80
76229;BME280;65021;53.174;18.160;2023-06-10T01:23:54;101230.79;;;17.61;66.72
76229;BME280;65021;53.174;18.160;2023-06-10T01:26:28;101232.36;;;17.60;66.79
76229;BME280;65021;53.174;18.160;2023-06-10T01:29:14;101232.48;;;17.59;66.63
76229;BME280;65021;53.174;18.160;2023-06-10T01:31:54;101234.15;;;17.58;66.63
76229;BME280;65021;53.174;18.160;2023-06-10T01:34:24;101235.91;;;17.56;66.47
76229;BME280;65021;53.174;18.160;2023-06-10T01:36:52;101238.15;;;17.56;66.50
76229;BME280;65021;53.174;18.160;2023-06-10T01:39:23;101237.36;;;17.56;66.34
76229;BME280;65021;53.174;18.160;2023-06-10T01:41:52;101241.06;;;17.54;66.32
76229;BME280;65021;53.174;18.160;2023-06-10T01:44:20;101242.13;;;17.52;66.14
76229;BME280;65021;53.174;18.160;2023-06-10T01:46:47;101245.55;;;17.51;66.17
76229;BME280;65021;53.174;18.160;2023-06-10T01:49:14;101249.74;;;17.49;66.69
76229;BME280;65021;53.174;18.160;2023-06-10T01:51:40;101252.95;;;17.47;66.37
76229;BME280;65021;53.174;18.160;2023-06-10T01:54:07;101252.61;;;17.46;66.20
76229;BME280;65021;53.174;18.160;2023-06-10T01:56:34;101261.33;;;17.45;66.33
76229;BME280;65021;53.174;18.160;2023-06-10T01:59:00;101266.33;;;17.43;66.60
76229;BME280;65021;53.174;18.160;2023-06-10T02:01:28;101267.27;;;17.42;66.48
76229;BME280;65021;53.174;18.160;2023-06-10T02:03:54;101272.29;;;17.40;66.46
76229;BME280;65021;53.174;18.160;2023-06-10T02:06:22;101274.80;;;17.37;66.61
76229;BME280;65021;53.174;18.160;2023-06-10T02:08:48;101277.06;;;17.36;66.29
76229;BME280;65021;53.174;18.160;2023-06-10T02:11:15;101277.90;;;17.33;66.56
76229;BME280;65021;53.174;18.160;2023-06-10T02:13:41;101275.69;;;17.31;66.30
76229;BME280;65021;53.174;18.160;2023-06-10T02:16:08;101285.19;;;17.28;66.44
76229;BME280;65021;53.174;18.160;2023-06-10T02:18:40;101287.09;;;17.25;66.58
76229;BME280;65021;53.174;18.160;2023-06-10T02:21:09;101285.52;;;17.22;66.43
76229;BME280;65021;53.174;18.160;2023-06-10T02:23:36;101282.98;;;17.21;66.50
76229;BME280;65021;53.174;18.160;2023-06-10T02:26:02;101279.84;;;17.19;66.60
76229;BME280;65021;53.174;18.160;2023-06-10T02:28:29;101281.30;;;17.19;66.77
76229;BME280;65021;53.174;18.160;2023-06-10T02:30:55;101275.89;;;17.16;66.68
76229;BME280;65021;53.174;18.160;2023-06-10T02:33:23;101278.13;;;17.15;66.66
76229;BME280;65021;53.174;18.160;2023-06-10T02:35:50;101283.58;;;17.11;66.67
76229;BME280;65021;53.174;18.160;2023-06-10T02:38:17;101287.50;;;17.10;66.66
76229;BME280;65021;53.174;18.160;2023-06-10T02:40:44;101288.73;;;17.09;66.48
76229;BME280;65021;53.174;18.160;2023-06-10T02:43:11;101287.17;;;17.08;66.75
76229;BME280;65021;53.174;18.160;2023-06-10T02:45:37;101291.09;;;17.06;66.78
76229;BME280;65021;53.174;18.160;2023-06-10T02:48:04;101287.05;;;17.04;66.78
76229;BME280;65021;53.174;18.160;2023-06-10T02:50:31;101295.30;;;17.01;66.67
76229;BME280;65021;53.174;18.160;2023-06-10T02:52:58;101294.39;;;16.98;66.67
76229;BME280;65021;53.174;18.160;2023-06-10T02:55:24;101302.41;;;16.95;66.88
76229;BME280;65021;53.174;18.160;2023-06-10T02:57:52;101308.73;;;16.89;66.97
76229;BME280;65021;53.174;18.160;2023-06-10T03:00:20;101316.47;;;16.86;67.04
76229;BME280;65021;53.174;18.160;2023-06-10T03:02:47;101320.63;;;16.87;67.17
76229;BME280;65021;53.174;18.160;2023-06-10T03:05:15;101325.07;;;16.90;66.85
76229;BME280;65021;53.174;18.160;2023-06-10T03:07:43;101335.52;;;16.89;66.73
76229;BME280;65021;53.174;18.160;2023-06-10T03:10:10;101339.99;;;16.86;66.73
76229;BME280;65021;53.174;18.160;2023-06-10T03:12:36;101344.44;;;16.84;66.98
76229;BME280;65021;53.174;18.160;2023-06-10T03:15:03;101344.31;;;16.84;66.72
76229;BME280;65021;53.174;18.160;2023-06-10T03:17:37;101352.52;;;16.85;66.77
76229;BME280;65021;53.174;18.160;2023-06-10T03:20:04;101353.65;;;16.86;66.89
76229;BME280;65021;53.174;18.160;2023-06-10T03:22:36;101350.80;;;16.90;66.52
76229;BME280;65021;53.174;18.160;2023-06-10T03:25:05;101353.54;;;16.99;66.36
76229;BME280;65021;53.174;18.160;2023-06-10T03:27:32;101351.16;;;17.08;65.97
76229;BME280;65021;53.174;18.160;2023-06-10T03:29:59;101350.77;;;17.27;65.70
76229;BME280;65021;53.174;18.160;2023-06-10T03:32:25;101349.64;;;17.42;65.39
76229;BME280;65021;53.174;18.160;2023-06-10T03:34:52;101352.02;;;17.67;64.88
76229;BME280;65021;53.174;18.160;2023-06-10T03:37:24;101355.50;;;17.68;64.17
76229;BME280;65021;53.174;18.160;2023-06-10T03:39:50;101361.11;;;17.58;64.38
76229;BME280;65021;53.174;18.160;2023-06-10T03:42:17;101362.06;;;17.57;64.42
76229;BME280;65021;53.174;18.160;2023-06-10T03:44:44;101363.50;;;17.72;63.96
76229;BME280;65021;53.174;18.160;2023-06-10T03:47:10;101367.27;;;17.85;63.53
76229;BME280;65021;53.174;18.160;2023-06-10T03:49:39;101370.27;;;17.87;63.03
76229;BME280;65021;53.174;18.160;2023-06-10T03:52:06;101375.89;;;17.87;62.80
76229;BME280;65021;53.174;18.160;2023-06-10T03:54:33;101376.85;;;17.92;62.62
76229;BME280;65021;53.174;18.160;2023-06-10T03:57:03;101384.05;;;17.95;62.23
76229;BME280;65021;53.174;18.160;2023-06-10T03:59:30;101388.61;;;18.00;62.08
76229;BME280;65021;53.174;18.160;2023-06-10T04:01:56;101388.33;;;18.05;61.54
76229;BME280;65021;53.174;18.160;2023-06-10T04:04:23;101397.34;;;18.09;60.84
76229;BME280;65021;53.174;18.160;2023-06-10T04:06:50;101397.67;;;18.14;60.60
76229;BME280;65021;53.174;18.160;2023-06-10T04:09:17;101398.98;;;18.22;60.09
76229;BME280;65021;53.174;18.160;2023-06-10T04:11:44;101400.26;;;18.31;59.57
76229;BME280;65021;53.174;18.160;2023-06-10T04:14:10;101410.27;;;18.37;59.11
76229;BME280;65021;53.174;18.160;2023-06-10T04:16:37;101405.66;;;18.42;58.21
76229;BME280;65021;53.174;18.160;2023-06-10T04:19:04;101405.23;;;18.54;58.01
76229;BME280;65021;53.174;18.160;2023-06-10T04:21:31;101410.14;;;18.75;57.45
76229;BME280;65021;53.174;18.160;2023-06-10T04:23:57;101408.56;;;19.02;56.52
76229;BME280;65021;53.174;18.160;2023-06-10T04:26:24;101413.65;;;19.08;56.21
76229;BME280;65021;53.174;18.160;2023-06-10T04:28:52;101415.66;;;19.15;55.16
76229;BME280;65021;53.174;18.160;2023-06-10T04:31:18;101409.36;;;19.15;55.26
76229;BME280;65021;53.174;18.160;2023-06-10T04:33:45;101413.84;;;19.07;54.55
76229;BME280;65021;53.174;18.160;2023-06-10T04:36:12;101415.66;;;18.99;54.11
76229;BME280;65021;53.174;18.160;2023-06-10T04:38:39;101412.61;;;18.87;54.02
76229;BME280;65021;53.174;18.160;2023-06-10T04:41:07;101416.66;;;18.81;53.69
76229;BME280;65021;53.174;18.160;2023-06-10T04:43:33;101414.20;;;18.73;53.80
76229;BME280;65021;53.174;18.160;2023-06-10T04:46:00;101412.20;;;18.68;53.58
76229;BME280;65021;53.174;18.160;2023-06-10T04:48:27;101412.26;;;18.63;53.37
76229;BME280;65021;53.174;18.160;2023-06-10T04:50:53;101416.38;;;18.54;53.12
76229;BME280;65021;53.174;18.160;2023-06-10T04:53:20;101414.73;;;18.44;52.77
76229;BME280;65021;53.174;18.160;2023-06-10T04:55:47;101415.69;;;18.36;52.61
76229;BME280;65021;53.174;18.160;2023-06-10T04:58:14;101420.47;;;18.26;52.80
76229;BME280;65021;53.174;18.160;2023-06-10T05:00:41;101423.06;;;18.21;52.86
76229;BME280;65021;53.174;18.160;2023-06-10T05:03:08;101425.83;;;18.19;52.88
76229;BME280;65021;53.174;18.160;2023-06-10T05:05:35;101427.95;;;18.17;52.92
76229;BME280;65021;53.174;18.160;2023-06-10T05:08:01;101437.02;;;18.12;52.83
76229;BME280;65021;53.174;18.160;2023-06-10T05:10:28;101434.70;;;18.05;52.82
76229;BME280;65021;53.174;18.160;2023-06-10T05:12:58;101437.52;;;18.01;52.84
76229;BME280;65021;53.174;18.160;2023-06-10T05:15:24;101433.27;;;17.96;52.60
76229;BME280;65021;53.174;18.160;2023-06-10T05:17:51;101431.98;;;17.95;52.71
76229;BME280;65021;53.174;18.160;2023-06-10T05:20:18;101432.45;;;17.96;52.55
76229;BME280;65021;53.174;18.160;2023-06-10T05:22:44;101427.64;;;17.94;52.63
76229;BME280;65021;53.174;18.160;2023-06-10T05:25:11;101429.85;;;17.95;52.47
76229;BME280;65021;53.174;18.160;2023-06-10T05:27:37;101433.11;;;17.99;52.29
76229;BME280;65021;53.174;18.160;2023-06-10T05:30:06;101430.09;;;18.00;52.31
76229;BME280;65021;53.174;18.160;2023-06-10T05:32:33;101427.94;;;18.05;52.17
76229;BME280;65021;53.174;18.160;2023-06-10T05:35:00;101427.27;;;18.09;52.19
76229;BME280;65021;53.174;18.160;2023-06-10T05:37:27;101426.98;;;18.15;52.18
76229;BME280;65021;53.174;18.160;2023-06-10T05:39:54;101433.88;;;18.19;52.03
76229;BME280;65021;53.174;18.160;2023-06-10T05:42:20;101434.44;;;18.23;51.91
76229;BME280;65021;53.174;18.160;2023-06-10T05:44:47;101431.61;;;18.29;51.99
76229;BME280;65021;53.174;18.160;2023-06-10T05:47:13;101435.33;;;18.37;52.04
76229;BME280;65021;53.174;18.160;2023-06-10T05:49:40;101430.04;;;18.44;51.86
76229;BME280;65021;53.174;18.160;2023-06-10T05:52:07;101425.83;;;18.51;51.83
76229;BME280;65021;53.174;18.160;2023-06-10T05:54:33;101429.98;;;18.61;51.67
76229;BME280;65021;53.174;18.160;2023-06-10T05:57:00;101436.07;;;18.70;51.35
76229;BME280;65021;53.174;18.160;2023-06-10T05:59:26;101436.11;;;18.84;51.61
76229;BME280;65021;53.174;18.160;2023-06-10T06:01:53;101437.92;;;18.97;51.30
76229;BME280;65021;53.174;18.160;2023-06-10T06:04:20;101436.36;;;19.10;51.32
76229;BME280;65021;53.174;18.160;2023-06-10T06:06:46;101434.34;;;19.25;51.20
76229;BME280;65021;53.174;18.160;2023-06-10T06:09:13;101434.65;;;19.40;50.91
76229;BME280;65021;53.174;18.160;2023-06-10T06:11:39;101429.21;;;19.57;50.90
76229;BME280;65021;53.174;18.160;2023-06-10T06:14:06;101429.39;;;19.74;50.85
76229;BME280;65021;53.174;18.160;2023-06-10T06:16:33;101427.48;;;20.00;50.59
76229;BME280;65021;53.174;18.160;2023-06-10T06:18:59;101429.59;;;20.20;50.50
76229;BME280;65021;53.174;18.160;2023-06-10T06:21:26;101428.35;;;20.37;50.44
76229;BME280;65021;53.174;18.160;2023-06-10T06:23:53;101437.20;;;20.53;50.07
76229;BME280;65021;53.174;18.160;2023-06-10T06:26:19;101437.56;;;20.61;49.69
76229;BME280;65021;53.174;18.160;2023-06-10T06:28:47;101436.41;;;20.64;49.39
76229;BME280;65021;53.174;18.160;2023-06-10T06:31:13;101438.86;;;20.68;49.22
76229;BME280;65021;53.174;18.160;2023-06-10T06:33:40;101435.44;;;20.87;48.43
76229;BME280;65021;53.174;18.160;2023-06-10T06:36:06;101435.94;;;21.34;47.49
76229;BME280;65021;53.174;18.160;2023-06-10T06:38:33;101441.60;;;21.77;46.62
76229;BME280;65021;53.174;18.160;2023-06-10T06:41:00;101432.45;;;22.19;45.81
76229;BME280;65021;53.174;18.160;2023-06-10T06:43:29;101427.41;;;22.59;45.29
76229;BME280;65021;53.174;18.160;2023-06-10T06:45:57;101430.92;;;22.88;44.55
76229;BME280;65021;53.174;18.160;2023-06-10T06:48:24;101429.91;;;22.99;43.84
76229;BME280;65021;53.174;18.160;2023-06-10T06:50:50;101433.77;;;23.08;42.87
76229;BME280;65021;53.174;18.160;2023-06-10T06:53:20;101437.52;;;23.21;43.38
76229;BME280;65021;53.174;18.160;2023-06-10T06:55:47;101434.39;;;23.42;42.41
76229;BME280;65021;53.174;18.160;2023-06-10T06:58:14;101434.20;;;23.59;41.64
76229;BME280;65021;53.174;18.160;2023-06-10T07:00:40;101437.30;;;23.63;41.46
76229;BME280;65021;53.174;18.160;2023-06-10T07:03:07;101440.30;;;23.35;42.09
76229;BME280;65021;53.174;18.160;2023-06-10T07:05:34;101445.09;;;23.09;43.03
76229;BME280;65021;53.174;18.160;2023-06-10T07:08:01;101448.42;;;22.92;43.53
76229;BME280;65021;53.174;18.160;2023-06-10T07:10:28;101447.17;;;22.67;43.55
76229;BME280;65021;53.174;18.160;2023-06-10T07:12:55;101445.95;;;22.81;43.24
76229;BME280;65021;53.174;18.160;2023-06-10T07:15:24;101442.95;;;23.00;42.98
76229;BME280;65021;53.174;18.160;2023-06-10T07:18:00;101445.20;;;23.17;42.86
76229;BME280;65021;53.174;18.160;2023-06-10T07:20:27;101450.89;;;23.32;42.93
76229;BME280;65021;53.174;18.160;2023-06-10T07:22:56;101445.10;;;23.46;42.79
76229;BME280;65021;53.174;18.160;2023-06-10T07:25:23;101450.25;;;23.50;42.57
76229;BME280;65021;53.174;18.160;2023-06-10T07:27:52;101456.67;;;23.49;42.60
76229;BME280;65021;53.174;18.160;2023-06-10T07:30:19;101457.73;;;23.55;42.61
76229;BME280;65021;53.174;18.160;2023-06-10T07:32:46;101454.60;;;23.66;42.55
76229;BME280;65021;53.174;18.160;2023-06-10T07:35:13;101445.45;;;23.71;41.98
76229;BME280;65021;53.174;18.160;2023-06-10T07:37:40;101452.70;;;23.82;41.57
76229;BME280;65021;53.174;18.160;2023-06-10T07:40:07;101449.69;;;23.87;41.09
76229;BME280;65021;53.174;18.160;2023-06-10T07:42:35;101449.68;;;24.02;40.93
76229;BME280;65021;53.174;18.160;2023-06-10T07:45:03;101453.82;;;23.98;39.90
76229;BME280;65021;53.174;18.160;2023-06-10T07:47:32;101459.67;;;23.96;40.12
76229;BME280;65021;53.174;18.160;2023-06-10T07:49:59;101455.43;;;24.02;40.13
76229;BME280;65021;53.174;18.160;2023-06-10T07:52:26;101462.91;;;24.14;39.82
76229;BME280;65021;53.174;18.160;2023-06-10T07:54:54;101464.75;;;24.18;39.72
76229;BME280;65021;53.174;18.160;2023-06-10T07:57:21;101457.56;;;24.17;39.65
76229;BME280;65021;53.174;18.160;2023-06-10T07:59:48;101456.35;;;24.10;39.32
76229;BME280;65021;53.174;18.160;2023-06-10T08:02:15;101461.65;;;24.06;39.57
76229;BME280;65021;53.174;18.160;2023-06-10T08:04:42;101458.72;;;24.19;39.31
76229;BME280;65021;53.174;18.160;2023-06-10T08:07:08;101462.30;;;24.18;39.16
76229;BME280;65021;53.174;18.160;2023-06-10T08:09:35;101465.98;;;24.19;39.30
76229;BME280;65021;53.174;18.160;2023-06-10T08:12:01;101467.11;;;24.31;39.33
76229;BME280;65021;53.174;18.160;2023-06-10T08:14:28;101469.19;;;24.43;39.07
76229;BME280;65021;53.174;18.160;2023-06-10T08:16:55;101478.92;;;24.51;38.72
76229;BME280;65021;53.174;18.160;2023-06-10T08:19:22;101476.15;;;24.44;38.69
76229;BME280;65021;53.174;18.160;2023-06-10T08:21:48;101480.55;;;24.34;38.82
76229;BME280;65021;53.174;18.160;2023-06-10T08:24:15;101473.23;;;24.29;38.82
76229;BME280;65021;53.174;18.160;2023-06-10T08:26:44;101471.33;;;24.20;38.78
76229;BME280;65021;53.174;18.160;2023-06-10T08:29:12;101482.90;;;24.36;38.93
76229;BME280;65021;53.174;18.160;2023-06-10T08:31:42;101484.21;;;24.40;38.76
76229;BME280;65021;53.174;18.160;2023-06-10T08:34:09;101486.38;;;24.47;38.71
76229;BME280;65021;53.174;18.160;2023-06-10T08:36:36;101484.55;;;24.54;38.74
76229;BME280;65021;53.174;18.160;2023-06-10T08:39:03;101483.77;;;24.60;38.38
76229;BME280;65021;53.174;18.160;2023-06-10T08:41:35;101487.05;;;24.60;38.07
76229;BME280;65021;53.174;18.160;2023-06-10T08:46:36;101497.87;;;24.50;38.04
76229;BME280;65021;53.174;18.160;2023-06-10T08:49:05;101495.35;;;24.45;37.77
76229;BME280;65021;53.174;18.160;2023-06-10T08:51:35;101498.17;;;24.38;37.71
76229;BME280;65021;53.174;18.160;2023-06-10T08:54:14;101500.81;;;24.35;38.07
76229;BME280;65021;53.174;18.160;2023-06-10T08:56:42;101497.30;;;24.35;37.89
76229;BME280;65021;53.174;18.160;2023-06-10T08:59:10;101493.86;;;24.43;37.70
76229;BME280;65021;53.174;18.160;2023-06-10T09:01:37;101487.92;;;24.44;38.03
76229;BME280;65021;53.174;18.160;2023-06-10T09:04:04;101504.64;;;24.44;38.08
76229;BME280;65021;53.174;18.160;2023-06-10T09:06:32;101496.10;;;24.47;37.74
76229;BME280;65021;53.174;18.160;2023-06-10T09:09:00;101492.25;;;24.41;37.97
76229;BME280;65021;53.174;18.160;2023-06-10T09:11:27;101497.63;;;24.40;38.12
76229;BME280;65021;53.174;18.160;2023-06-10T09:13:53;101495.80;;;24.38;37.80
76229;BME280;65021;53.174;18.160;2023-06-10T09:16:20;101495.94;;;24.39;37.88
76229;BME280;65021;53.174;18.160;2023-06-10T09:18:47;101499.65;;;24.40;37.87
76229;BME280;65021;53.174;18.160;2023-06-10T09:21:13;101496.63;;;24.46;37.94
76229;BME280;65021;53.174;18.160;2023-06-10T09:23:40;101491.90;;;24.50;37.91
76229;BME280;65021;53.174;18.160;2023-06-10T09:26:08;101488.95;;;24.59;37.68
76229;BME280;65021;53.174;18.160;2023-06-10T09:28:36;101480.26;;;24.73;37.57
76229;BME280;65021;53.174;18.160;2023-06-10T09:31:04;101491.48;;;24.82;37.22
76229;BME280;65021;53.174;18.160;2023-06-10T09:33:31;101488.55;;;24.79;36.93
76229;BME280;65021;53.174;18.160;2023-06-10T09:36:01;101483.30;;;24.69;36.52
76229;BME280;65021;53.174;18.160;2023-06-10T09:38:33;101488.05;;;24.65;36.68
76229;BME280;65021;53.174;18.160;2023-06-10T09:41:00;101482.34;;;24.69;36.64
76229;BME280;65021;53.174;18.160;2023-06-10T09:46:07;101483.90;;;24.68;36.46
76229;BME280;65021;53.174;18.160;2023-06-10T09:48:44;101473.48;;;24.66;36.39
76229;BME280;65021;53.174;18.160;2023-06-10T09:51:13;101475.33;;;24.59;36.11
76229;BME280;65021;53.174;18.160;2023-06-10T09:53:40;101475.19;;;24.71;35.57
76229;BME280;65021;53.174;18.160;2023-06-10T09:56:06;101474.23;;;24.83;35.75
76229;BME280;65021;53.174;18.160;2023-06-10T09:58:35;101479.36;;;24.89;35.18
76229;BME280;65021;53.174;18.160;2023-06-10T10:01:12;101471.30;;;24.83;34.70
76229;BME280;65021;53.174;18.160;2023-06-10T10:03:49;101472.70;;;24.89;35.01
76229;BME280;65021;53.174;18.160;2023-06-10T10:06:17;101482.77;;;25.05;34.43
76229;BME280;65021;53.174;18.160;2023-06-10T10:08:49;101485.41;;;25.04;33.20
76229;BME280;65021;53.174;18.160;2023-06-10T10:11:18;101479.41;;;24.99;32.18
76229;BME280;65021;53.174;18.160;2023-06-10T10:13:49;101475.27;;;25.00;32.72
76229;BME280;65021;53.174;18.160;2023-06-10T10:16:21;101477.02;;;25.13;32.57
76229;BME280;65021;53.174;18.160;2023-06-10T10:18:53;101477.88;;;24.99;32.53
76229;BME280;65021;53.174;18.160;2023-06-10T10:21:27;101477.19;;;24.97;32.91
76229;BME280;65021;53.174;18.160;2023-06-10T10:24:11;101485.37;;;25.10;32.96
76229;BME280;65021;53.174;18.160;2023-06-10T10:26:39;101472.70;;;25.13;32.93
76229;BME280;65021;53.174;18.160;2023-06-10T10:29:31;101480.61;;;25.07;32.94
76229;BME280;65021;53.174;18.160;2023-06-10T10:31:59;101485.48;;;25.09;32.79
76229;BME280;65021;53.174;18.160;2023-06-10T10:34:35;101481.80;;;25.06;32.65
76229;BME280;65021;53.174;18.160;2023-06-10T10:37:03;101477.21;;;25.05;33.05
76229;BME280;65021;53.174;18.160;2023-06-10T10:39:30;101482.31;;;25.01;32.87
76229;BME280;65021;53.174;18.160;2023-06-10T10:41:59;101465.80;;;25.00;33.21
76229;BME280;65021;53.174;18.160;2023-06-10T10:44:30;101463.27;;;25.10;33.66
76229;BME280;65021;53.174;18.160;2023-06-10T10:47:02;101473.86;;;25.29;33.20
76229;BME280;65021;53.174;18.160;2023-06-10T10:49:30;101474.28;;;25.28;32.94
76229;BME280;65021;53.174;18.160;2023-06-10T10:52:00;101475.14;;;25.25;33.01
76229;BME280;65021;53.174;18.160;2023-06-10T10:54:29;101475.46;;;25.27;32.98
76229;BME280;65021;53.174;18.160;2023-06-10T10:57:16;101469.09;;;25.18;33.21
76229;BME280;65021;53.174;18.160;2023-06-10T11:02:41;101475.73;;;25.32;33.11
76229;BME280;65021;53.174;18.160;2023-06-10T11:05:11;101475.29;;;25.34;32.34
76229;BME280;65021;53.174;18.160;2023-06-10T11:07:37;101471.50;;;25.26;31.99
76229;BME280;65021;53.174;18.160;2023-06-10T11:10:12;101472.15;;;25.23;32.13
76229;BME280;65021;53.174;18.160;2023-06-10T11:15:12;101470.96;;;25.26;31.63
76229;BME280;65021;53.174;18.160;2023-06-10T11:18:10;101474.89;;;25.29;31.37
76229;BME280;65021;53.174;18.160;2023-06-10T11:33:55;101465.81;;;25.21;28.90
76229;BME280;65021;53.174;18.160;2023-06-10T11:36:23;101461.05;;;25.27;29.09
76229;BME280;65021;53.174;18.160;2023-06-10T11:38:55;101468.77;;;25.38;28.61
76229;BME280;65021;53.174;18.160;2023-06-10T11:41:26;101462.29;;;25.31;28.44
76229;BME280;65021;53.174;18.160;2023-06-10T11:43:54;101463.22;;;25.32;28.65
76229;BME280;65021;53.174;18.160;2023-06-10T11:46:24;101468.36;;;25.30;27.26
76229;BME280;65021;53.174;18.160;2023-06-10T11:48:55;101473.76;;;25.16;25.81
76229;BME280;65021;53.174;18.160;2023-06-10T11:51:26;101452.48;;;25.14;26.32
76229;BME280;65021;53.174;18.160;2023-06-10T11:53:53;101451.67;;;25.26;26.29
76229;BME280;65021;53.174;18.160;2023-06-10T11:58:59;101455.02;;;25.27;26.47
76229;BME280;65021;53.174;18.160;2023-06-10T12:01:31;101457.11;;;25.21;26.40
76229;BME280;65021;53.174;18.160;2023-06-10T12:03:59;101457.07;;;25.17;26.21
76229;BME280;65021;53.174;18.160;2023-06-10T12:06:26;101450.98;;;25.15;25.53
76229;BME280;65021;53.174;18.160;2023-06-10T12:08:54;101453.95;;;25.15;25.32
76229;BME280;65021;53.174;18.160;2023-06-10T12:11:21;101452.05;;;25.19;24.22
76229;BME280;65021;53.174;18.160;2023-06-10T12:13:49;101463.71;;;25.21;23.15
76229;BME280;65021;53.174;18.160;2023-06-10T12:16:17;101453.80;;;25.23;23.39
76229;BME280;65021;53.174;18.160;2023-06-10T12:18:44;101460.09;;;25.27;24.09
76229;BME280;65021;53.174;18.160;2023-06-10T12:21:17;101461.34;;;25.32;23.49
76229;BME280;65021;53.174;18.160;2023-06-10T12:24:00;101458.77;;;25.33;22.60
76229;BME280;65021;53.174;18.160;2023-06-10T12:26:44;101466.61;;;25.29;23.02
76229;BME280;65021;53.174;18.160;2023-06-10T12:29:24;101452.30;;;25.24;23.05
76229;BME280;65021;53.174;18.160;2023-06-10T12:31:54;101450.33;;;25.14;22.35
76229;BME280;65021;53.174;18.160;2023-06-10T12:34:47;101446.24;;;25.17;22.56
76229;BME280;65021;53.174;18.160;2023-06-10T12:37:14;101442.44;;;25.11;22.08
76229;BME280;65021;53.174;18.160;2023-06-10T12:39:41;101452.40;;;25.09;22.39
76229;BME280;65021;53.174;18.160;2023-06-10T12:42:09;101448.91;;;25.09;22.93
76229;BME280;65021;53.174;18.160;2023-06-10T12:44:40;101453.30;;;25.17;23.24
76229;BME280;65021;53.174;18.160;2023-06-10T12:47:08;101455.99;;;25.19;23.25
76229;BME280;65021;53.174;18.160;2023-06-10T12:49:36;101451.45;;;25.13;23.87
76229;BME280;65021;53.174;18.160;2023-06-10T12:52:03;101448.82;;;25.15;24.05
76229;BME280;65021;53.174;18.160;2023-06-10T12:54:30;101444.13;;;25.24;24.23
76229;BME280;65021;53.174;18.160;2023-06-10T12:56:57;101440.00;;;25.25;24.39
76229;BME280;65021;53.174;18.160;2023-06-10T12:59:24;101439.55;;;25.30;24.79
76229;BME280;65021;53.174;18.160;2023-06-10T13:01:51;101438.75;;;25.34;24.95
76229;BME280;65021;53.174;18.160;2023-06-10T13:04:18;101431.83;;;25.39;25.15
76229;BME280;65021;53.174;18.160;2023-06-10T13:06:46;101436.41;;;25.44;25.18
76229;BME280;65021;53.174;18.160;2023-06-10T13:09:13;101432.41;;;25.48;24.94
76229;BME280;65021;53.174;18.160;2023-06-10T13:11:40;101435.61;;;25.47;25.19
76229;BME280;65021;53.174;18.160;2023-06-10T13:14:08;101435.78;;;25.38;25.50
76229;BME280;65021;53.174;18.160;2023-06-10T13:16:35;101430.22;;;25.34;25.69